sensor_id;sensor_type;location;lat;lon;timestamp;P1;durP1;ratioP1;P2;durP2;ratioP2
75667;SDS011;64266;48.798;44.756;2023-11-21T00:03:38;21.25;;;9.65;;
75667;SDS011;64266;48.798;44.756;2023-11-21T00:08:41;22.67;;;9.93;;
75667;SDS011;64266;48.798;44.756;2023-11-21T00:13:44;20.30;;;9.15;;
75667;SDS011;64266;48.798;44.756;2023-11-21T00:18:52;24.58;;;8.57;;
75667;SDS011;64266;48.798;44.756;2023-11-21T00:23:54;17.20;;;7.00;;
75667;SDS011;64266;48.798;44.756;2023-11-21T00:28:57;19.48;;;8.15;;
75667;SDS011;64266;48.798;44.756;2023-11-21T00:34:01;22.35;;;8.15;;
75667;SDS011;64266;48.798;44.756;2023-11-21T00:39:08;14.55;;;6.15;;
75667;SDS011;64266;48.798;44.756;2023-11-21T00:44:11;16.58;;;6.05;;
75667;SDS011;64266;48.798;44.756;2023-11-21T00:49:14;17.13;;;6.65;;
75667;SDS011;64266;48.798;44.756;2023-11-21T00:54:17;12.02;;;5.35;;
75667;SDS011;64266;48.798;44.756;2023-11-21T00:59:21;15.43;;;6.47;;
75667;SDS011;64266;48.798;44.756;2023-11-21T01:04:25;18.55;;;6.85;;
75667;SDS011;64266;48.798;44.756;2023-11-21T01:09:29;16.38;;;7.25;;
75667;SDS011;64266;48.798;44.756;2023-11-21T01:14:32;17.65;;;7.53;;
75667;SDS011;64266;48.798;44.756;2023-11-21T01:19:35;21.33;;;10.55;;
75667;SDS011;64266;48.798;44.756;2023-11-21T01:24:38;25.58;;;9.30;;
75667;SDS011;64266;48.798;44.756;2023-11-21T01:29:41;26.10;;;10.90;;
75667;SDS011;64266;48.798;44.756;2023-11-21T01:34:44;37.05;;;12.70;;
75667;SDS011;64266;48.798;44.756;2023-11-21T01:39:47;42.83;;;16.02;;
75667;SDS011;64266;48.798;44.756;2023-11-21T01:44:51;33.90;;;12.38;;
75667;SDS011;64266;48.798;44.756;2023-11-21T01:49:54;20.17;;;8.43;;
75667;SDS011;64266;48.798;44.756;2023-11-21T01:54:57;16.20;;;7.07;;
75667;SDS011;64266;48.798;44.756;2023-11-21T02:00:03;16.52;;;7.07;;
75667;SDS011;64266;48.798;44.756;2023-11-21T02:05:19;18.52;;;6.70;;
75667;SDS011;64266;48.798;44.756;2023-11-21T02:10:24;17.92;;;7.10;;
75667;SDS011;64266;48.798;44.756;2023-11-21T02:15:27;15.48;;;6.97;;
75667;SDS011;64266;48.798;44.756;2023-11-21T02:20:31;16.33;;;8.38;;
75667;SDS011;64266;48.798;44.756;2023-11-21T02:25:38;18.17;;;9.15;;
75667;SDS011;64266;48.798;44.756;2023-11-21T02:30:41;18.15;;;10.05;;
75667;SDS011;64266;48.798;44.756;2023-11-21T02:35:45;15.20;;;9.10;;
75667;SDS011;64266;48.798;44.756;2023-11-21T02:40:48;17.33;;;8.25;;
75667;SDS011;64266;48.798;44.756;2023-11-21T02:45:51;19.33;;;9.32;;
75667;SDS011;64266;48.798;44.756;2023-11-21T02:50:54;14.27;;;6.70;;
75667;SDS011;64266;48.798;44.756;2023-11-21T02:55:57;15.77;;;6.07;;
75667;SDS011;64266;48.798;44.756;2023-11-21T03:01:00;11.55;;;4.30;;
75667;SDS011;64266;48.798;44.756;2023-11-21T03:06:03;9.60;;;4.28;;
75667;SDS011;64266;48.798;44.756;2023-11-21T03:11:06;6.82;;;3.28;;
75667;SDS011;64266;48.798;44.756;2023-11-21T03:16:10;5.78;;;2.75;;
75667;SDS011;64266;48.798;44.756;2023-11-21T03:21:14;5.88;;;2.90;;
75667;SDS011;64266;48.798;44.756;2023-11-21T03:26:18;5.75;;;2.70;;
75667;SDS011;64266;48.798;44.756;2023-11-21T03:31:21;4.22;;;1.90;;
75667;SDS011;64266;48.798;44.756;2023-11-21T03:36:24;7.18;;;2.53;;
75667;SDS011;64266;48.798;44.756;2023-11-21T03:41:27;4.85;;;2.45;;
75667;SDS011;64266;48.798;44.756;2023-11-21T03:46:30;5.03;;;2.42;;
75667;SDS011;64266;48.798;44.756;2023-11-21T03:51:33;5.70;;;2.95;;
75667;SDS011;64266;48.798;44.756;2023-11-21T03:56:38;5.57;;;2.92;;
75667;SDS011;64266;48.798;44.756;2023-11-21T04:01:41;5.93;;;2.63;;
75667;SDS011;64266;48.798;44.756;2023-11-21T04:06:44;7.57;;;3.05;;
75667;SDS011;64266;48.798;44.756;2023-11-21T04:11:47;7.03;;;4.05;;
75667;SDS011;64266;48.798;44.756;2023-11-21T04:16:50;8.73;;;4.00;;
75667;SDS011;64266;48.798;44.756;2023-11-21T04:21:53;6.18;;;3.50;;
75667;SDS011;64266;48.798;44.756;2023-11-21T04:26:56;5.18;;;2.30;;
75667;SDS011;64266;48.798;44.756;2023-11-21T04:32:00;4.65;;;2.42;;
75667;SDS011;64266;48.798;44.756;2023-11-21T04:37:05;7.72;;;3.50;;
75667;SDS011;64266;48.798;44.756;2023-11-21T04:42:08;4.45;;;2.28;;
75667;SDS011;64266;48.798;44.756;2023-11-21T04:47:11;4.88;;;2.22;;
75667;SDS011;64266;48.798;44.756;2023-11-21T04:52:15;4.38;;;2.25;;
75667;SDS011;64266;48.798;44.756;2023-11-21T04:57:18;3.95;;;2.03;;
75667;SDS011;64266;48.798;44.756;2023-11-21T05:02:21;5.22;;;3.10;;
75667;SDS011;64266;48.798;44.756;2023-11-21T05:07:36;5.90;;;3.22;;
75667;SDS011;64266;48.798;44.756;2023-11-21T05:12:39;5.80;;;3.45;;
75667;SDS011;64266;48.798;44.756;2023-11-21T05:17:46;4.63;;;2.38;;
75667;SDS011;64266;48.798;44.756;2023-11-21T05:27:55;3.50;;;1.90;;
75667;SDS011;64266;48.798;44.756;2023-11-21T05:32:58;3.03;;;1.33;;
75667;SDS011;64266;48.798;44.756;2023-11-21T05:38:01;4.00;;;1.80;;
75667;SDS011;64266;48.798;44.756;2023-11-21T05:43:04;12.57;;;7.07;;
75667;SDS011;64266;48.798;44.756;2023-11-21T05:48:11;9.93;;;5.13;;
75667;SDS011;64266;48.798;44.756;2023-11-21T05:53:18;27.33;;;12.07;;
75667;SDS011;64266;48.798;44.756;2023-11-21T05:58:22;30.13;;;12.52;;
75667;SDS011;64266;48.798;44.756;2023-11-21T06:03:26;18.13;;;8.90;;
75667;SDS011;64266;48.798;44.756;2023-11-21T06:08:29;14.82;;;7.95;;
75667;SDS011;64266;48.798;44.756;2023-11-21T06:13:32;27.60;;;15.40;;
75667;SDS011;64266;48.798;44.756;2023-11-21T06:18:35;14.40;;;7.85;;
75667;SDS011;64266;48.798;44.756;2023-11-21T06:23:39;8.45;;;5.18;;
75667;SDS011;64266;48.798;44.756;2023-11-21T06:28:44;6.53;;;3.03;;
75667;SDS011;64266;48.798;44.756;2023-11-21T06:33:47;6.40;;;2.80;;
75667;SDS011;64266;48.798;44.756;2023-11-21T06:38:50;7.95;;;3.63;;
75667;SDS011;64266;48.798;44.756;2023-11-21T06:43:53;9.00;;;5.03;;
75667;SDS011;64266;48.798;44.756;2023-11-21T06:48:56;8.73;;;4.13;;
75667;SDS011;64266;48.798;44.756;2023-11-21T06:53:59;13.32;;;5.82;;
75667;SDS011;64266;48.798;44.756;2023-11-21T06:59:02;11.05;;;4.82;;
75667;SDS011;64266;48.798;44.756;2023-11-21T07:04:08;9.95;;;4.47;;
75667;SDS011;64266;48.798;44.756;2023-11-21T07:09:11;12.80;;;6.57;;
75667;SDS011;64266;48.798;44.756;2023-11-21T07:14:15;9.32;;;3.97;;
75667;SDS011;64266;48.798;44.756;2023-11-21T07:19:19;11.55;;;5.53;;
75667;SDS011;64266;48.798;44.756;2023-11-21T07:24:23;9.43;;;4.75;;
75667;SDS011;64266;48.798;44.756;2023-11-21T07:29:28;7.97;;;3.55;;
75667;SDS011;64266;48.798;44.756;2023-11-21T07:34:32;10.18;;;4.90;;
75667;SDS011;64266;48.798;44.756;2023-11-21T07:39:35;8.20;;;4.15;;
75667;SDS011;64266;48.798;44.756;2023-11-21T07:44:38;10.57;;;5.15;;
75667;SDS011;64266;48.798;44.756;2023-11-21T07:49:42;7.90;;;3.83;;
75667;SDS011;64266;48.798;44.756;2023-11-21T07:54:46;7.60;;;3.88;;
75667;SDS011;64266;48.798;44.756;2023-11-21T07:59:49;6.80;;;3.78;;
75667;SDS011;64266;48.798;44.756;2023-11-21T08:04:52;6.38;;;3.60;;
75667;SDS011;64266;48.798;44.756;2023-11-21T08:09:55;7.03;;;3.75;;
75667;SDS011;64266;48.798;44.756;2023-11-21T08:14:59;8.13;;;3.70;;
75667;SDS011;64266;48.798;44.756;2023-11-21T08:20:04;6.60;;;3.05;;
75667;SDS011;64266;48.798;44.756;2023-11-21T08:25:08;4.63;;;1.83;;
75667;SDS011;64266;48.798;44.756;2023-11-21T08:30:11;4.03;;;1.50;;
75667;SDS011;64266;48.798;44.756;2023-11-21T08:35:16;3.75;;;1.65;;
75667;SDS011;64266;48.798;44.756;2023-11-21T08:40:20;5.07;;;2.28;;
75667;SDS011;64266;48.798;44.756;2023-11-21T08:45:23;5.78;;;2.65;;
75667;SDS011;64266;48.798;44.756;2023-11-21T08:50:28;7.15;;;2.42;;
75667;SDS011;64266;48.798;44.756;2023-11-21T08:55:31;4.07;;;1.98;;
75667;SDS011;64266;48.798;44.756;2023-11-21T09:00:40;5.30;;;2.50;;
75667;SDS011;64266;48.798;44.756;2023-11-21T09:05:43;5.25;;;2.20;;
75667;SDS011;64266;48.798;44.756;2023-11-21T09:10:47;11.02;;;4.38;;
75667;SDS011;64266;48.798;44.756;2023-11-21T09:15:50;5.03;;;2.05;;
75667;SDS011;64266;48.798;44.756;2023-11-21T09:20:53;2.92;;;1.30;;
75667;SDS011;64266;48.798;44.756;2023-11-21T09:25:56;3.05;;;1.65;;
75667;SDS011;64266;48.798;44.756;2023-11-21T09:31:02;5.88;;;2.58;;
75667;SDS011;64266;48.798;44.756;2023-11-21T09:36:10;4.50;;;1.52;;
75667;SDS011;64266;48.798;44.756;2023-11-21T09:46:47;3.95;;;0.90;;
75667;SDS011;64266;48.798;44.756;2023-11-21T09:51:52;2.58;;;0.50;;
75667;SDS011;64266;48.798;44.756;2023-11-21T09:56:59;1.45;;;0.40;;
75667;SDS011;64266;48.798;44.756;2023-11-21T10:02:02;1.73;;;0.55;;
75667;SDS011;64266;48.798;44.756;2023-11-21T10:07:06;1.20;;;0.50;;
75667;SDS011;64266;48.798;44.756;2023-11-21T10:12:11;1.73;;;0.70;;
75667;SDS011;64266;48.798;44.756;2023-11-21T10:17:17;2.60;;;1.00;;
75667;SDS011;64266;48.798;44.756;2023-11-21T10:22:21;4.07;;;1.67;;
75667;SDS011;64266;48.798;44.756;2023-11-21T10:27:26;4.43;;;1.55;;
75667;SDS011;64266;48.798;44.756;2023-11-21T10:32:29;2.53;;;1.02;;
75667;SDS011;64266;48.798;44.756;2023-11-21T10:37:35;5.35;;;1.83;;
75667;SDS011;64266;48.798;44.756;2023-11-21T10:42:43;3.67;;;1.55;;
75667;SDS011;64266;48.798;44.756;2023-11-21T10:47:45;5.28;;;1.80;;
75667;SDS011;64266;48.798;44.756;2023-11-21T10:52:48;7.35;;;2.35;;
75667;SDS011;64266;48.798;44.756;2023-11-21T10:57:52;6.68;;;2.40;;
75667;SDS011;64266;48.798;44.756;2023-11-21T11:02:57;5.30;;;2.50;;
75667;SDS011;64266;48.798;44.756;2023-11-21T11:08:04;5.72;;;2.85;;
75667;SDS011;64266;48.798;44.756;2023-11-21T11:13:08;4.55;;;2.40;;
75667;SDS011;64266;48.798;44.756;2023-11-21T11:18:12;9.35;;;3.47;;
75667;SDS011;64266;48.798;44.756;2023-11-21T11:34:08;5.18;;;2.40;;
75667;SDS011;64266;48.798;44.756;2023-11-21T11:50:08;6.95;;;3.22;;
75667;SDS011;64266;48.798;44.756;2023-11-21T11:55:20;7.53;;;3.22;;
75667;SDS011;64266;48.798;44.756;2023-11-21T12:05:33;5.20;;;2.70;;
75667;SDS011;64266;48.798;44.756;2023-11-21T12:10:41;8.02;;;3.38;;
75667;SDS011;64266;48.798;44.756;2023-11-21T12:15:45;7.72;;;3.65;;
75667;SDS011;64266;48.798;44.756;2023-11-21T12:20:48;8.18;;;3.80;;
75667;SDS011;64266;48.798;44.756;2023-11-21T12:25:52;10.20;;;3.65;;
75667;SDS011;64266;48.798;44.756;2023-11-21T12:30:55;5.97;;;3.20;;
75667;SDS011;64266;48.798;44.756;2023-11-21T12:36:16;8.45;;;3.88;;
75667;SDS011;64266;48.798;44.756;2023-11-21T12:41:19;11.05;;;4.82;;
75667;SDS011;64266;48.798;44.756;2023-11-21T12:46:23;9.43;;;4.65;;
75667;SDS011;64266;48.798;44.756;2023-11-21T12:51:31;10.05;;;4.30;;
75667;SDS011;64266;48.798;44.756;2023-11-21T12:56:39;15.07;;;5.68;;
75667;SDS011;64266;48.798;44.756;2023-11-21T13:01:42;8.25;;;4.07;;
75667;SDS011;64266;48.798;44.756;2023-11-21T13:06:45;9.55;;;4.45;;
75667;SDS011;64266;48.798;44.756;2023-11-21T13:11:48;12.18;;;4.95;;
75667;SDS011;64266;48.798;44.756;2023-11-21T13:16:51;8.90;;;4.47;;
75667;SDS011;64266;48.798;44.756;2023-11-21T13:21:54;13.88;;;6.82;;
75667;SDS011;64266;48.798;44.756;2023-11-21T13:26:57;14.00;;;5.53;;
75667;SDS011;64266;48.798;44.756;2023-11-21T13:32:00;8.18;;;4.68;;
75667;SDS011;64266;48.798;44.756;2023-11-21T13:37:05;11.05;;;5.32;;
75667;SDS011;64266;48.798;44.756;2023-11-21T13:42:09;10.80;;;5.15;;
75667;SDS011;64266;48.798;44.756;2023-11-21T13:47:14;10.52;;;4.90;;
75667;SDS011;64266;48.798;44.756;2023-11-21T13:52:17;12.55;;;5.43;;
75667;SDS011;64266;48.798;44.756;2023-11-21T13:57:24;11.18;;;5.28;;
75667;SDS011;64266;48.798;44.756;2023-11-21T14:02:29;9.65;;;4.75;;
75667;SDS011;64266;48.798;44.756;2023-11-21T14:07:40;12.63;;;5.50;;
75667;SDS011;64266;48.798;44.756;2023-11-21T14:12:50;11.77;;;5.85;;
75667;SDS011;64266;48.798;44.756;2023-11-21T14:17:53;11.95;;;5.65;;
75667;SDS011;64266;48.798;44.756;2023-11-21T14:22:57;12.25;;;5.57;;
75667;SDS011;64266;48.798;44.756;2023-11-21T14:28:00;10.93;;;5.88;;
75667;SDS011;64266;48.798;44.756;2023-11-21T14:33:03;12.38;;;5.85;;
75667;SDS011;64266;48.798;44.756;2023-11-21T14:38:06;13.18;;;6.10;;
75667;SDS011;64266;48.798;44.756;2023-11-21T14:43:09;14.85;;;5.40;;
75667;SDS011;64266;48.798;44.756;2023-11-21T14:48:12;10.20;;;5.20;;
75667;SDS011;64266;48.798;44.756;2023-11-21T14:53:34;11.45;;;5.57;;
75667;SDS011;64266;48.798;44.756;2023-11-21T14:58:56;12.07;;;6.03;;
75667;SDS011;64266;48.798;44.756;2023-11-21T15:04:06;14.65;;;6.97;;
75667;SDS011;64266;48.798;44.756;2023-11-21T15:09:10;12.93;;;5.85;;
75667;SDS011;64266;48.798;44.756;2023-11-21T15:14:13;14.98;;;6.72;;
75667;SDS011;64266;48.798;44.756;2023-11-21T15:19:22;16.40;;;7.40;;
75667;SDS011;64266;48.798;44.756;2023-11-21T15:24:28;13.23;;;6.30;;
75667;SDS011;64266;48.798;44.756;2023-11-21T15:29:31;17.45;;;7.10;;
75667;SDS011;64266;48.798;44.756;2023-11-21T15:34:35;13.80;;;6.53;;
75667;SDS011;64266;48.798;44.756;2023-11-21T15:39:39;13.57;;;6.30;;
75667;SDS011;64266;48.798;44.756;2023-11-21T15:44:42;12.68;;;7.07;;
75667;SDS011;64266;48.798;44.756;2023-11-21T15:49:45;14.68;;;7.18;;
75667;SDS011;64266;48.798;44.756;2023-11-21T15:54:52;14.27;;;6.97;;
75667;SDS011;64266;48.798;44.756;2023-11-21T15:59:56;15.18;;;8.00;;
75667;SDS011;64266;48.798;44.756;2023-11-21T16:04:59;14.73;;;7.13;;
75667;SDS011;64266;48.798;44.756;2023-11-21T16:10:02;13.57;;;7.50;;
75667;SDS011;64266;48.798;44.756;2023-11-21T16:15:07;14.68;;;7.60;;
75667;SDS011;64266;48.798;44.756;2023-11-21T16:20:10;15.40;;;8.13;;
75667;SDS011;64266;48.798;44.756;2023-11-21T16:25:15;17.23;;;7.45;;
75667;SDS011;64266;48.798;44.756;2023-11-21T16:30:19;15.90;;;8.25;;
75667;SDS011;64266;48.798;44.756;2023-11-21T16:35:25;13.10;;;6.80;;
75667;SDS011;64266;48.798;44.756;2023-11-21T16:40:28;14.07;;;6.82;;
75667;SDS011;64266;48.798;44.756;2023-11-21T16:45:31;14.88;;;8.07;;
75667;SDS011;64266;48.798;44.756;2023-11-21T16:50:34;15.85;;;8.48;;
75667;SDS011;64266;48.798;44.756;2023-11-21T16:55:37;19.30;;;8.00;;
75667;SDS011;64266;48.798;44.756;2023-11-21T17:00:40;16.67;;;8.23;;
75667;SDS011;64266;48.798;44.756;2023-11-21T17:05:44;18.40;;;8.65;;
75667;SDS011;64266;48.798;44.756;2023-11-21T17:10:48;14.70;;;8.35;;
75667;SDS011;64266;48.798;44.756;2023-11-21T17:15:51;16.50;;;8.55;;
75667;SDS011;64266;48.798;44.756;2023-11-21T17:20:54;13.98;;;6.78;;
75667;SDS011;64266;48.798;44.756;2023-11-21T17:25:58;13.23;;;7.32;;
75667;SDS011;64266;48.798;44.756;2023-11-21T17:31:00;12.23;;;6.85;;
75667;SDS011;64266;48.798;44.756;2023-11-21T17:36:04;15.20;;;7.47;;
75667;SDS011;64266;48.798;44.756;2023-11-21T17:41:10;13.13;;;6.63;;
75667;SDS011;64266;48.798;44.756;2023-11-21T17:46:18;12.82;;;6.93;;
75667;SDS011;64266;48.798;44.756;2023-11-21T17:51:24;11.20;;;6.43;;
75667;SDS011;64266;48.798;44.756;2023-11-21T17:56:28;10.32;;;5.20;;
75667;SDS011;64266;48.798;44.756;2023-11-21T18:01:38;10.55;;;6.13;;
75667;SDS011;64266;48.798;44.756;2023-11-21T18:06:42;10.13;;;5.15;;
75667;SDS011;64266;48.798;44.756;2023-11-21T18:11:46;9.38;;;5.20;;
75667;SDS011;64266;48.798;44.756;2023-11-21T18:16:50;11.65;;;5.68;;
75667;SDS011;64266;48.798;44.756;2023-11-21T18:21:53;14.35;;;6.75;;
75667;SDS011;64266;48.798;44.756;2023-11-21T18:26:56;14.50;;;6.72;;
75667;SDS011;64266;48.798;44.756;2023-11-21T18:31:59;11.98;;;6.65;;
75667;SDS011;64266;48.798;44.756;2023-11-21T18:37:02;12.45;;;6.97;;
75667;SDS011;64266;48.798;44.756;2023-11-21T18:42:05;15.05;;;6.60;;
75667;SDS011;64266;48.798;44.756;2023-11-21T18:47:08;13.52;;;6.38;;
75667;SDS011;64266;48.798;44.756;2023-11-21T18:52:17;13.70;;;6.90;;
75667;SDS011;64266;48.798;44.756;2023-11-21T18:57:20;16.63;;;7.70;;
75667;SDS011;64266;48.798;44.756;2023-11-21T19:02:23;13.23;;;6.85;;
75667;SDS011;64266;48.798;44.756;2023-11-21T19:07:26;14.02;;;7.55;;
75667;SDS011;64266;48.798;44.756;2023-11-21T19:12:30;14.27;;;7.30;;
75667;SDS011;64266;48.798;44.756;2023-11-21T19:17:37;13.75;;;7.28;;
75667;SDS011;64266;48.798;44.756;2023-11-21T19:22:41;12.65;;;6.38;;
75667;SDS011;64266;48.798;44.756;2023-11-21T19:27:44;17.73;;;7.22;;
75667;SDS011;64266;48.798;44.756;2023-11-21T19:32:49;13.13;;;6.07;;
75667;SDS011;64266;48.798;44.756;2023-11-21T19:37:52;15.57;;;7.50;;
75667;SDS011;64266;48.798;44.756;2023-11-21T19:42:56;15.45;;;6.57;;
75667;SDS011;64266;48.798;44.756;2023-11-21T19:47:58;12.95;;;6.53;;
75667;SDS011;64266;48.798;44.756;2023-11-21T19:53:01;14.15;;;6.95;;
75667;SDS011;64266;48.798;44.756;2023-11-21T19:58:06;15.70;;;7.90;;
75667;SDS011;64266;48.798;44.756;2023-11-21T20:03:09;13.70;;;6.65;;
75667;SDS011;64266;48.798;44.756;2023-11-21T20:08:12;14.13;;;6.80;;
75667;SDS011;64266;48.798;44.756;2023-11-21T20:13:15;14.32;;;7.22;;
75667;SDS011;64266;48.798;44.756;2023-11-21T20:18:19;17.50;;;8.07;;
75667;SDS011;64266;48.798;44.756;2023-11-21T20:23:22;17.45;;;8.10;;
75667;SDS011;64266;48.798;44.756;2023-11-21T20:28:26;12.52;;;6.55;;
75667;SDS011;64266;48.798;44.756;2023-11-21T20:33:29;21.40;;;8.38;;
75667;SDS011;64266;48.798;44.756;2023-11-21T20:38:32;13.95;;;7.63;;
75667;SDS011;64266;48.798;44.756;2023-11-21T20:43:35;16.02;;;7.03;;
75667;SDS011;64266;48.798;44.756;2023-11-21T20:48:38;16.27;;;7.72;;
75667;SDS011;64266;48.798;44.756;2023-11-21T20:53:42;14.20;;;6.95;;
75667;SDS011;64266;48.798;44.756;2023-11-21T20:58:45;12.35;;;6.35;;
75667;SDS011;64266;48.798;44.756;2023-11-21T21:03:48;13.40;;;7.20;;
75667;SDS011;64266;48.798;44.756;2023-11-21T21:08:52;14.20;;;6.80;;
75667;SDS011;64266;48.798;44.756;2023-11-21T21:13:55;14.25;;;7.15;;
75667;SDS011;64266;48.798;44.756;2023-11-21T21:18:58;15.10;;;6.50;;
75667;SDS011;64266;48.798;44.756;2023-11-21T21:24:01;14.00;;;6.93;;
75667;SDS011;64266;48.798;44.756;2023-11-21T21:29:04;16.35;;;7.05;;
75667;SDS011;64266;48.798;44.756;2023-11-21T21:34:11;15.63;;;7.13;;
75667;SDS011;64266;48.798;44.756;2023-11-21T21:39:15;13.15;;;6.90;;
75667;SDS011;64266;48.798;44.756;2023-11-21T21:44:20;13.75;;;7.05;;
75667;SDS011;64266;48.798;44.756;2023-11-21T21:49:23;14.95;;;6.78;;
75667;SDS011;64266;48.798;44.756;2023-11-21T21:54:26;13.80;;;7.15;;
75667;SDS011;64266;48.798;44.756;2023-11-21T21:59:29;15.82;;;6.10;;
75667;SDS011;64266;48.798;44.756;2023-11-21T22:04:32;13.32;;;6.82;;
75667;SDS011;64266;48.798;44.756;2023-11-21T22:09:36;13.80;;;7.55;;
75667;SDS011;64266;48.798;44.756;2023-11-21T22:14:39;16.50;;;7.85;;
75667;SDS011;64266;48.798;44.756;2023-11-21T22:19:42;15.82;;;7.07;;
75667;SDS011;64266;48.798;44.756;2023-11-21T22:24:45;15.50;;;7.28;;
75667;SDS011;64266;48.798;44.756;2023-11-21T22:29:47;16.05;;;7.55;;
75667;SDS011;64266;48.798;44.756;2023-11-21T22:34:51;15.48;;;6.97;;
75667;SDS011;64266;48.798;44.756;2023-11-21T22:39:54;18.25;;;8.23;;
75667;SDS011;64266;48.798;44.756;2023-11-21T22:44:57;16.75;;;7.68;;
75667;SDS011;64266;48.798;44.756;2023-11-21T22:50:00;14.82;;;7.10;;
75667;SDS011;64266;48.798;44.756;2023-11-21T22:55:04;13.18;;;7.22;;
75667;SDS011;64266;48.798;44.756;2023-11-21T23:00:08;14.07;;;7.22;;
75667;SDS011;64266;48.798;44.756;2023-11-21T23:05:14;16.88;;;7.28;;
75667;SDS011;64266;48.798;44.756;2023-11-21T23:10:18;15.75;;;7.30;;
75667;SDS011;64266;48.798;44.756;2023-11-21T23:15:21;13.75;;;6.30;;
75667;SDS011;64266;48.798;44.756;2023-11-21T23:20:25;15.95;;;7.18;;
75667;SDS011;64266;48.798;44.756;2023-11-21T23:25:27;16.15;;;8.10;;
75667;SDS011;64266;48.798;44.756;2023-11-21T23:30:30;13.55;;;6.13;;
75667;SDS011;64266;48.798;44.756;2023-11-21T23:35:33;14.20;;;6.50;;
75667;SDS011;64266;48.798;44.756;2023-11-21T23:40:36;13.77;;;6.68;;
75667;SDS011;64266;48.798;44.756;2023-11-21T23:45:40;15.02;;;7.20;;
75667;SDS011;64266;48.798;44.756;2023-11-21T23:50:43;15.45;;;7.47;;
75667;SDS011;64266;48.798;44.756;2023-11-21T23:55:46;11.35;;;6.05;;
